Pagina principale
METAR-TAF:

METAR-TAF

Aeroporti :

Aeroporto Internazionale di Tuzla

Tuzla, Bosnia-Erzegovina

latitudine: 44-33N, longitudine: 018-42E, altezza: 306 m

Osservazione

Il bollettino è stato emesso 16 minuti fa, alle 12:00 UTC
Vento 4 kt da direzioni variabili
Temperature 22°C
Umidità 33%
Pressione 1028 hPa
Visibilità 10 km o più
nessuna nube inferiore a 1500 m e nessun cumulonembo

METAR: LQTZ 191200Z VRB04KT CAVOK 22/05 Q1028

Ora: 14:16 (12:16 UTC)

Previsione

Il bollettino è stato emesso 1 ora e 16 minuti fa, alle 11:00 UTC
Previsione valida dal 19 alle 12 UTC al 20 alle 12 UTC
Vento 5 kt da est
Visibilità 10 km o più
nessuna nube inferiore a 1500 m e nessun cumulonembo

TAF: LQTZ 191100Z 1912/2012 10005KT CAVOK TX25/1914Z TN04/2004Z

Osservazioni e previsioni meteorologiche di più di 4000 aeroporti (messaggi METAR e TAF).

Le stazioni disponibili sono rappresentate dai dischi gialli e rossi sulla carta.

Puntare il mouse per vedere il nome della stazione.

Clicca sopra per visualizzare le osservazioni e previsioni meteorologiche.

Per cambiare la mappa : fare clic sui pulsanti verdi con una croce nera per ingrandire, il pulsante verde con un trattino per diminuire, o sulla freccia verde per le mappe adiacenti.


METAR-TAF: